sensor_id;sensor_type;location;lat;lon;timestamp;temperature;humidity
12700;DHT22;6414;49.570;6.060;2022-10-16T00:00:17;12.80;99.90
12700;DHT22;6414;49.570;6.060;2022-10-16T00:03:02;12.90;99.90
12700;DHT22;6414;49.570;6.060;2022-10-16T00:05:48;12.90;99.90
12700;DHT22;6414;49.570;6.060;2022-10-16T00:08:33;12.90;99.90
12700;DHT22;6414;49.570;6.060;2022-10-16T00:14:07;13.00;99.90
12700;DHT22;6414;49.570;6.060;2022-10-16T00:16:50;13.10;99.90
12700;DHT22;6414;49.570;6.060;2022-10-16T00:19:35;13.00;99.90
12700;DHT22;6414;49.570;6.060;2022-10-16T00:22:21;13.00;99.90
12700;DHT22;6414;49.570;6.060;2022-10-16T00:25:06;13.00;99.90
12700;DHT22;6414;49.570;6.060;2022-10-16T00:27:51;13.00;99.90
12700;DHT22;6414;49.570;6.060;2022-10-16T00:30:38;13.00;99.90
12700;DHT22;6414;49.570;6.060;2022-10-16T00:33:23;13.00;99.90
12700;DHT22;6414;49.570;6.060;2022-10-16T00:36:10;13.00;99.90
12700;DHT22;6414;49.570;6.060;2022-10-16T00:38:55;13.00;99.90
12700;DHT22;6414;49.570;6.060;2022-10-16T00:41:41;13.00;99.90
12700;DHT22;6414;49.570;6.060;2022-10-16T00:44:49;13.00;99.90
12700;DHT22;6414;49.570;6.060;2022-10-16T00:47:40;12.90;99.90
12700;DHT22;6414;49.570;6.060;2022-10-16T00:50:28;12.90;99.90
12700;DHT22;6414;49.570;6.060;2022-10-16T00:53:13;12.80;99.90
12700;DHT22;6414;49.570;6.060;2022-10-16T00:55:58;12.80;99.90
12700;DHT22;6414;49.570;6.060;2022-10-16T00:58:43;12.80;99.90
12700;DHT22;6414;49.570;6.060;2022-10-16T01:01:30;12.80;99.90
12700;DHT22;6414;49.570;6.060;2022-10-16T01:04:15;12.80;99.90
12700;DHT22;6414;49.570;6.060;2022-10-16T01:13:11;12.70;99.90
12700;DHT22;6414;49.570;6.060;2022-10-16T01:16:02;12.70;99.90
12700;DHT22;6414;49.570;6.060;2022-10-16T01:19:02;12.60;99.90
12700;DHT22;6414;49.570;6.060;2022-10-16T01:21:42;12.60;99.90
12700;DHT22;6414;49.570;6.060;2022-10-16T01:24:38;12.70;99.90
12700;DHT22;6414;49.570;6.060;2022-10-16T01:27:27;12.60;99.90
12700;DHT22;6414;49.570;6.060;2022-10-16T01:33:13;12.60;99.90
12700;DHT22;6414;49.570;6.060;2022-10-16T01:35:56;12.70;99.90
12700;DHT22;6414;49.570;6.060;2022-10-16T01:38:40;12.60;99.90
12700;DHT22;6414;49.570;6.060;2022-10-16T01:41:36;12.60;99.90
12700;DHT22;6414;49.570;6.060;2022-10-16T01:44:22;12.70;99.90
12700;DHT22;6414;49.570;6.060;2022-10-16T01:47:07;12.60;99.90
12700;DHT22;6414;49.570;6.060;2022-10-16T01:49:52;12.70;99.90
12700;DHT22;6414;49.570;6.060;2022-10-16T01:52:38;12.60;99.90
12700;DHT22;6414;49.570;6.060;2022-10-16T01:55:30;12.60;99.90
12700;DHT22;6414;49.570;6.060;2022-10-16T01:58:12;12.60;99.90
12700;DHT22;6414;49.570;6.060;2022-10-16T02:00:57;12.70;99.90
12700;DHT22;6414;49.570;6.060;2022-10-16T02:03:43;12.60;99.90
12700;DHT22;6414;49.570;6.060;2022-10-16T02:06:29;12.50;99.90
12700;DHT22;6414;49.570;6.060;2022-10-16T02:09:14;12.60;99.90
12700;DHT22;6414;49.570;6.060;2022-10-16T02:12:01;12.60;99.90
12700;DHT22;6414;49.570;6.060;2022-10-16T02:14:45;12.60;99.90
12700;DHT22;6414;49.570;6.060;2022-10-16T02:17:31;12.50;99.90
12700;DHT22;6414;49.570;6.060;2022-10-16T02:20:18;12.50;99.90
12700;DHT22;6414;49.570;6.060;2022-10-16T02:23:03;12.50;99.90
12700;DHT22;6414;49.570;6.060;2022-10-16T02:25:49;12.40;99.90
12700;DHT22;6414;49.570;6.060;2022-10-16T02:28:39;12.50;99.90
12700;DHT22;6414;49.570;6.060;2022-10-16T02:31:25;12.50;99.90
12700;DHT22;6414;49.570;6.060;2022-10-16T02:34:08;12.40;99.90
12700;DHT22;6414;49.570;6.060;2022-10-16T02:36:55;12.50;99.90
12700;DHT22;6414;49.570;6.060;2022-10-16T02:39:39;12.40;99.90
12700;DHT22;6414;49.570;6.060;2022-10-16T02:42:37;12.50;99.90
12700;DHT22;6414;49.570;6.060;2022-10-16T02:45:22;12.50;99.90
12700;DHT22;6414;49.570;6.060;2022-10-16T02:48:08;12.50;99.90
12700;DHT22;6414;49.570;6.060;2022-10-16T02:50:53;12.50;99.90
12700;DHT22;6414;49.570;6.060;2022-10-16T02:53:39;12.40;99.90
12700;DHT22;6414;49.570;6.060;2022-10-16T02:56:24;12.50;99.90
12700;DHT22;6414;49.570;6.060;2022-10-16T02:59:09;12.50;99.90
12700;DHT22;6414;49.570;6.060;2022-10-16T03:01:55;12.40;99.90
12700;DHT22;6414;49.570;6.060;2022-10-16T03:04:40;12.40;99.90
12700;DHT22;6414;49.570;6.060;2022-10-16T03:07:26;12.40;99.90
12700;DHT22;6414;49.570;6.060;2022-10-16T03:10:12;12.50;99.90
12700;DHT22;6414;49.570;6.060;2022-10-16T03:12:57;12.50;99.90
12700;DHT22;6414;49.570;6.060;2022-10-16T03:15:43;12.40;99.90
12700;DHT22;6414;49.570;6.060;2022-10-16T03:18:27;12.40;99.90
12700;DHT22;6414;49.570;6.060;2022-10-16T03:21:13;12.40;99.90
12700;DHT22;6414;49.570;6.060;2022-10-16T03:23:59;12.40;99.90
12700;DHT22;6414;49.570;6.060;2022-10-16T03:26:44;12.40;99.90
12700;DHT22;6414;49.570;6.060;2022-10-16T03:29:29;12.40;99.90
12700;DHT22;6414;49.570;6.060;2022-10-16T03:32:15;12.50;99.90
12700;DHT22;6414;49.570;6.060;2022-10-16T03:35:00;12.50;99.90
12700;DHT22;6414;49.570;6.060;2022-10-16T03:37:45;12.50;99.90
12700;DHT22;6414;49.570;6.060;2022-10-16T03:40:31;12.50;99.90
12700;DHT22;6414;49.570;6.060;2022-10-16T03:43:19;12.50;99.90
12700;DHT22;6414;49.570;6.060;2022-10-16T03:46:04;12.50;99.90
12700;DHT22;6414;49.570;6.060;2022-10-16T03:48:49;12.50;99.90
12700;DHT22;6414;49.570;6.060;2022-10-16T03:51:35;12.50;99.90
12700;DHT22;6414;49.570;6.060;2022-10-16T03:54:20;12.50;99.90
12700;DHT22;6414;49.570;6.060;2022-10-16T03:57:05;12.50;99.90
12700;DHT22;6414;49.570;6.060;2022-10-16T03:59:51;12.50;99.90
12700;DHT22;6414;49.570;6.060;2022-10-16T04:02:36;12.50;99.90
12700;DHT22;6414;49.570;6.060;2022-10-16T04:05:22;12.40;99.90
12700;DHT22;6414;49.570;6.060;2022-10-16T04:08:08;12.50;99.90
12700;DHT22;6414;49.570;6.060;2022-10-16T04:10:53;12.50;99.90
12700;DHT22;6414;49.570;6.060;2022-10-16T04:13:38;12.50;99.90
12700;DHT22;6414;49.570;6.060;2022-10-16T04:16:24;12.50;99.90
12700;DHT22;6414;49.570;6.060;2022-10-16T04:19:09;12.50;99.90
12700;DHT22;6414;49.570;6.060;2022-10-16T04:21:54;12.50;99.90
12700;DHT22;6414;49.570;6.060;2022-10-16T04:24:40;12.50;99.90
12700;DHT22;6414;49.570;6.060;2022-10-16T04:27:25;12.60;99.90
12700;DHT22;6414;49.570;6.060;2022-10-16T04:30:11;12.50;99.90
12700;DHT22;6414;49.570;6.060;2022-10-16T04:32:56;12.50;99.90
12700;DHT22;6414;49.570;6.060;2022-10-16T04:35:42;12.50;99.90
12700;DHT22;6414;49.570;6.060;2022-10-16T04:38:27;12.50;99.90
12700;DHT22;6414;49.570;6.060;2022-10-16T04:41:13;12.40;99.90
12700;DHT22;6414;49.570;6.060;2022-10-16T04:43:59;12.50;99.90
12700;DHT22;6414;49.570;6.060;2022-10-16T04:46:45;12.40;99.90
12700;DHT22;6414;49.570;6.060;2022-10-16T04:49:30;12.50;99.90
12700;DHT22;6414;49.570;6.060;2022-10-16T04:52:16;12.40;99.90
12700;DHT22;6414;49.570;6.060;2022-10-16T04:55:01;12.40;99.90
12700;DHT22;6414;49.570;6.060;2022-10-16T04:57:46;12.40;99.90
12700;DHT22;6414;49.570;6.060;2022-10-16T05:00:32;12.40;99.90
12700;DHT22;6414;49.570;6.060;2022-10-16T05:03:18;12.40;99.90
12700;DHT22;6414;49.570;6.060;2022-10-16T05:06:05;12.40;99.90
12700;DHT22;6414;49.570;6.060;2022-10-16T05:08:49;12.40;99.90
12700;DHT22;6414;49.570;6.060;2022-10-16T05:11:34;12.40;99.90
12700;DHT22;6414;49.570;6.060;2022-10-16T05:14:19;12.40;99.90
12700;DHT22;6414;49.570;6.060;2022-10-16T05:17:05;12.40;99.90
12700;DHT22;6414;49.570;6.060;2022-10-16T05:19:50;12.40;99.90
12700;DHT22;6414;49.570;6.060;2022-10-16T05:22:36;12.40;99.90
12700;DHT22;6414;49.570;6.060;2022-10-16T05:25:21;12.40;99.90
12700;DHT22;6414;49.570;6.060;2022-10-16T05:28:07;12.40;99.90
12700;DHT22;6414;49.570;6.060;2022-10-16T05:30:52;12.50;99.90
12700;DHT22;6414;49.570;6.060;2022-10-16T05:33:38;12.50;99.90
12700;DHT22;6414;49.570;6.060;2022-10-16T05:36:23;12.40;99.90
12700;DHT22;6414;49.570;6.060;2022-10-16T05:39:09;12.50;99.90
12700;DHT22;6414;49.570;6.060;2022-10-16T05:41:54;12.50;99.90
12700;DHT22;6414;49.570;6.060;2022-10-16T05:44:40;12.50;99.90
12700;DHT22;6414;49.570;6.060;2022-10-16T05:47:25;12.40;99.90
12700;DHT22;6414;49.570;6.060;2022-10-16T05:50:11;12.40;99.90
12700;DHT22;6414;49.570;6.060;2022-10-16T05:52:56;12.40;99.90
12700;DHT22;6414;49.570;6.060;2022-10-16T05:55:41;12.40;99.90
12700;DHT22;6414;49.570;6.060;2022-10-16T05:58:31;12.50;99.90
12700;DHT22;6414;49.570;6.060;2022-10-16T06:01:16;12.40;99.90
12700;DHT22;6414;49.570;6.060;2022-10-16T06:04:00;12.50;99.90
12700;DHT22;6414;49.570;6.060;2022-10-16T06:06:46;12.50;99.90
12700;DHT22;6414;49.570;6.060;2022-10-16T06:09:32;12.50;99.90
12700;DHT22;6414;49.570;6.060;2022-10-16T06:12:17;12.50;99.90
12700;DHT22;6414;49.570;6.060;2022-10-16T06:15:02;12.50;99.90
12700;DHT22;6414;49.570;6.060;2022-10-16T06:17:48;12.50;99.90
12700;DHT22;6414;49.570;6.060;2022-10-16T06:20:33;12.50;99.90
12700;DHT22;6414;49.570;6.060;2022-10-16T06:23:18;12.50;99.90
12700;DHT22;6414;49.570;6.060;2022-10-16T06:26:10;12.60;99.90
12700;DHT22;6414;49.570;6.060;2022-10-16T06:28:55;12.60;99.90
12700;DHT22;6414;49.570;6.060;2022-10-16T06:31:39;12.60;99.90
12700;DHT22;6414;49.570;6.060;2022-10-16T06:34:25;12.60;99.90
12700;DHT22;6414;49.570;6.060;2022-10-16T06:37:10;12.60;99.90
12700;DHT22;6414;49.570;6.060;2022-10-16T06:39:56;12.70;99.90
12700;DHT22;6414;49.570;6.060;2022-10-16T06:42:42;12.70;99.90
12700;DHT22;6414;49.570;6.060;2022-10-16T06:45:28;12.70;99.90
12700;DHT22;6414;49.570;6.060;2022-10-16T06:48:14;12.70;99.90
12700;DHT22;6414;49.570;6.060;2022-10-16T06:51:01;12.80;99.90
12700;DHT22;6414;49.570;6.060;2022-10-16T06:53:46;12.80;99.90
12700;DHT22;6414;49.570;6.060;2022-10-16T06:56:31;12.80;99.90
12700;DHT22;6414;49.570;6.060;2022-10-16T06:59:16;12.80;99.90
12700;DHT22;6414;49.570;6.060;2022-10-16T07:02:02;12.80;99.90
12700;DHT22;6414;49.570;6.060;2022-10-16T07:04:47;12.80;99.90
12700;DHT22;6414;49.570;6.060;2022-10-16T07:07:33;12.90;99.90
12700;DHT22;6414;49.570;6.060;2022-10-16T07:10:19;13.00;99.90
12700;DHT22;6414;49.570;6.060;2022-10-16T07:13:05;13.00;99.90
12700;DHT22;6414;49.570;6.060;2022-10-16T07:15:50;13.00;99.90
12700;DHT22;6414;49.570;6.060;2022-10-16T07:18:36;13.10;99.90
12700;DHT22;6414;49.570;6.060;2022-10-16T07:21:21;13.10;99.90
12700;DHT22;6414;49.570;6.060;2022-10-16T07:24:10;13.10;99.90
12700;DHT22;6414;49.570;6.060;2022-10-16T07:26:52;13.10;99.90
12700;DHT22;6414;49.570;6.060;2022-10-16T07:29:37;13.10;99.90
12700;DHT22;6414;49.570;6.060;2022-10-16T07:32:22;13.10;99.90
12700;DHT22;6414;49.570;6.060;2022-10-16T07:35:08;13.10;99.90
12700;DHT22;6414;49.570;6.060;2022-10-16T07:37:54;13.20;99.90
12700;DHT22;6414;49.570;6.060;2022-10-16T07:40:40;13.20;99.90
12700;DHT22;6414;49.570;6.060;2022-10-16T07:43:26;13.20;99.90
12700;DHT22;6414;49.570;6.060;2022-10-16T07:46:11;13.20;99.90
12700;DHT22;6414;49.570;6.060;2022-10-16T07:48:57;13.20;99.90
12700;DHT22;6414;49.570;6.060;2022-10-16T07:51:43;13.20;99.90
12700;DHT22;6414;49.570;6.060;2022-10-16T07:54:28;13.20;99.90
12700;DHT22;6414;49.570;6.060;2022-10-16T07:57:14;13.20;99.90
12700;DHT22;6414;49.570;6.060;2022-10-16T07:59:59;13.20;99.90
12700;DHT22;6414;49.570;6.060;2022-10-16T08:02:44;13.30;99.90
12700;DHT22;6414;49.570;6.060;2022-10-16T08:05:31;13.30;99.90
12700;DHT22;6414;49.570;6.060;2022-10-16T08:08:18;13.30;99.90
12700;DHT22;6414;49.570;6.060;2022-10-16T08:11:01;13.40;99.90
12700;DHT22;6414;49.570;6.060;2022-10-16T08:13:47;13.40;99.90
12700;DHT22;6414;49.570;6.060;2022-10-16T08:16:33;13.40;99.90
12700;DHT22;6414;49.570;6.060;2022-10-16T08:19:18;13.40;99.90
12700;DHT22;6414;49.570;6.060;2022-10-16T08:22:04;13.50;99.90
12700;DHT22;6414;49.570;6.060;2022-10-16T08:24:49;13.50;99.90
12700;DHT22;6414;49.570;6.060;2022-10-16T08:27:34;13.40;99.90
12700;DHT22;6414;49.570;6.060;2022-10-16T08:30:20;13.50;99.90
12700;DHT22;6414;49.570;6.060;2022-10-16T08:33:05;13.50;99.90
12700;DHT22;6414;49.570;6.060;2022-10-16T08:35:51;13.60;99.90
12700;DHT22;6414;49.570;6.060;2022-10-16T08:38:37;13.60;99.90
12700;DHT22;6414;49.570;6.060;2022-10-16T08:41:54;13.60;99.90
12700;DHT22;6414;49.570;6.060;2022-10-16T08:50:09;13.70;99.90
12700;DHT22;6414;49.570;6.060;2022-10-16T08:52:53;13.70;99.90
12700;DHT22;6414;49.570;6.060;2022-10-16T08:55:51;13.80;99.90
12700;DHT22;6414;49.570;6.060;2022-10-16T08:58:36;13.90;99.90
12700;DHT22;6414;49.570;6.060;2022-10-16T09:01:22;14.00;99.90
12700;DHT22;6414;49.570;6.060;2022-10-16T09:04:28;14.00;99.90
12700;DHT22;6414;49.570;6.060;2022-10-16T09:16:28;14.60;99.90
12700;DHT22;6414;49.570;6.060;2022-10-16T09:19:14;14.60;99.90
12700;DHT22;6414;49.570;6.060;2022-10-16T09:21:59;14.70;99.90
12700;DHT22;6414;49.570;6.060;2022-10-16T09:24:43;14.60;99.90
12700;DHT22;6414;49.570;6.060;2022-10-16T09:27:28;14.70;99.90
12700;DHT22;6414;49.570;6.060;2022-10-16T09:30:14;14.70;99.90
12700;DHT22;6414;49.570;6.060;2022-10-16T09:32:59;15.00;99.90
12700;DHT22;6414;49.570;6.060;2022-10-16T09:35:45;15.20;99.90
12700;DHT22;6414;49.570;6.060;2022-10-16T09:38:33;15.10;99.90
12700;DHT22;6414;49.570;6.060;2022-10-16T09:41:21;15.40;99.90
12700;DHT22;6414;49.570;6.060;2022-10-16T09:44:15;15.40;99.90
12700;DHT22;6414;49.570;6.060;2022-10-16T09:47:15;15.50;99.90
12700;DHT22;6414;49.570;6.060;2022-10-16T09:50:05;15.70;99.90
12700;DHT22;6414;49.570;6.060;2022-10-16T09:52:50;15.90;99.90
12700;DHT22;6414;49.570;6.060;2022-10-16T09:55:35;15.90;99.90
12700;DHT22;6414;49.570;6.060;2022-10-16T09:58:24;15.80;99.90
12700;DHT22;6414;49.570;6.060;2022-10-16T10:01:13;15.70;99.90
12700;DHT22;6414;49.570;6.060;2022-10-16T10:03:58;15.70;99.90
12700;DHT22;6414;49.570;6.060;2022-10-16T10:06:47;15.70;99.90
12700;DHT22;6414;49.570;6.060;2022-10-16T10:09:38;15.60;99.90
12700;DHT22;6414;49.570;6.060;2022-10-16T10:12:30;15.50;99.90
12700;DHT22;6414;49.570;6.060;2022-10-16T10:15:15;15.60;99.90
12700;DHT22;6414;49.570;6.060;2022-10-16T10:18:01;15.50;99.90
12700;DHT22;6414;49.570;6.060;2022-10-16T10:20:46;15.50;99.90
12700;DHT22;6414;49.570;6.060;2022-10-16T10:23:31;15.60;99.90
12700;DHT22;6414;49.570;6.060;2022-10-16T10:26:22;15.70;99.90
12700;DHT22;6414;49.570;6.060;2022-10-16T10:32:11;15.60;99.90
12700;DHT22;6414;49.570;6.060;2022-10-16T10:34:55;15.50;99.90
12700;DHT22;6414;49.570;6.060;2022-10-16T10:38:00;15.50;99.90
12700;DHT22;6414;49.570;6.060;2022-10-16T10:46:51;15.20;99.90
12700;DHT22;6414;49.570;6.060;2022-10-16T10:55:56;15.20;99.90
12700;DHT22;6414;49.570;6.060;2022-10-16T10:58:52;15.20;99.90
12700;DHT22;6414;49.570;6.060;2022-10-16T11:02:00;15.20;99.90
12700;DHT22;6414;49.570;6.060;2022-10-16T11:11:03;15.20;99.90
12700;DHT22;6414;49.570;6.060;2022-10-16T11:19:53;15.20;99.90
12700;DHT22;6414;49.570;6.060;2022-10-16T11:22:41;15.20;99.90
12700;DHT22;6414;49.570;6.060;2022-10-16T11:25:31;15.10;99.90
12700;DHT22;6414;49.570;6.060;2022-10-16T11:28:16;15.10;99.90
12700;DHT22;6414;49.570;6.060;2022-10-16T11:31:11;15.10;99.90
12700;DHT22;6414;49.570;6.060;2022-10-16T11:34:02;15.20;99.90
12700;DHT22;6414;49.570;6.060;2022-10-16T11:37:09;15.10;99.90
12700;DHT22;6414;49.570;6.060;2022-10-16T11:39:54;15.30;99.90
12700;DHT22;6414;49.570;6.060;2022-10-16T11:42:40;15.30;99.90
12700;DHT22;6414;49.570;6.060;2022-10-16T11:48:23;15.40;99.90
12700;DHT22;6414;49.570;6.060;2022-10-16T11:51:29;15.40;99.90
12700;DHT22;6414;49.570;6.060;2022-10-16T11:53:59;15.40;99.90
12700;DHT22;6414;49.570;6.060;2022-10-16T11:56:43;15.40;99.90
12700;DHT22;6414;49.570;6.060;2022-10-16T11:59:51;15.50;99.90
12700;DHT22;6414;49.570;6.060;2022-10-16T12:02:44;15.40;99.90
12700;DHT22;6414;49.570;6.060;2022-10-16T12:08:33;15.30;99.90
12700;DHT22;6414;49.570;6.060;2022-10-16T12:16:58;15.00;99.90
12700;DHT22;6414;49.570;6.060;2022-10-16T12:19:56;15.00;99.90
12700;DHT22;6414;49.570;6.060;2022-10-16T12:22:31;15.20;99.90
12700;DHT22;6414;49.570;6.060;2022-10-16T12:25:30;15.30;99.90
12700;DHT22;6414;49.570;6.060;2022-10-16T12:28:20;15.20;99.90
12700;DHT22;6414;49.570;6.060;2022-10-16T12:31:06;15.10;99.90
12700;DHT22;6414;49.570;6.060;2022-10-16T12:34:00;15.10;99.90
12700;DHT22;6414;49.570;6.060;2022-10-16T12:36:44;15.10;99.90
12700;DHT22;6414;49.570;6.060;2022-10-16T12:39:30;15.10;99.90
12700;DHT22;6414;49.570;6.060;2022-10-16T12:42:23;15.30;99.90
12700;DHT22;6414;49.570;6.060;2022-10-16T12:45:32;15.40;99.90
12700;DHT22;6414;49.570;6.060;2022-10-16T12:48:19;15.40;99.90
12700;DHT22;6414;49.570;6.060;2022-10-16T12:51:11;15.50;99.90
12700;DHT22;6414;49.570;6.060;2022-10-16T12:54:02;15.60;99.90
12700;DHT22;6414;49.570;6.060;2022-10-16T13:00:00;15.70;99.90
12700;DHT22;6414;49.570;6.060;2022-10-16T13:05:40;15.70;99.90
12700;DHT22;6414;49.570;6.060;2022-10-16T13:08:55;15.80;99.90
12700;DHT22;6414;49.570;6.060;2022-10-16T13:18:34;15.80;99.90
12700;DHT22;6414;49.570;6.060;2022-10-16T13:24:19;15.60;99.90
12700;DHT22;6414;49.570;6.060;2022-10-16T13:30:27;15.60;99.90
12700;DHT22;6414;49.570;6.060;2022-10-16T13:33:19;15.60;99.90
12700;DHT22;6414;49.570;6.060;2022-10-16T13:36:03;15.60;99.90
12700;DHT22;6414;49.570;6.060;2022-10-16T13:38:48;15.60;99.90
12700;DHT22;6414;49.570;6.060;2022-10-16T13:41:33;15.50;99.90
12700;DHT22;6414;49.570;6.060;2022-10-16T18:39:39;14.80;99.90
12700;DHT22;6414;49.570;6.060;2022-10-16T18:42:24;14.70;99.90
12700;DHT22;6414;49.570;6.060;2022-10-16T18:45:09;14.70;99.90
12700;DHT22;6414;49.570;6.060;2022-10-16T18:47:55;14.70;99.90
12700;DHT22;6414;49.570;6.060;2022-10-16T18:50:40;14.60;99.90
12700;DHT22;6414;49.570;6.060;2022-10-16T18:53:26;14.60;99.90
12700;DHT22;6414;49.570;6.060;2022-10-16T18:56:11;14.60;99.90
12700;DHT22;6414;49.570;6.060;2022-10-16T18:59:00;14.60;99.90
12700;DHT22;6414;49.570;6.060;2022-10-16T19:01:41;14.60;99.90
12700;DHT22;6414;49.570;6.060;2022-10-16T19:04:27;14.60;99.90
12700;DHT22;6414;49.570;6.060;2022-10-16T19:07:12;14.50;99.90
12700;DHT22;6414;49.570;6.060;2022-10-16T19:09:57;14.50;99.90
12700;DHT22;6414;49.570;6.060;2022-10-16T19:12:43;14.50;99.90
12700;DHT22;6414;49.570;6.060;2022-10-16T19:15:29;14.50;99.90
12700;DHT22;6414;49.570;6.060;2022-10-16T19:18:15;14.50;99.90
12700;DHT22;6414;49.570;6.060;2022-10-16T19:21:01;14.50;99.90
12700;DHT22;6414;49.570;6.060;2022-10-16T19:23:50;14.50;99.90
12700;DHT22;6414;49.570;6.060;2022-10-16T19:26:32;14.50;99.90
12700;DHT22;6414;49.570;6.060;2022-10-16T19:29:17;14.50;99.90
12700;DHT22;6414;49.570;6.060;2022-10-16T19:32:03;14.50;99.90
12700;DHT22;6414;49.570;6.060;2022-10-16T19:34:49;14.50;99.90
12700;DHT22;6414;49.570;6.060;2022-10-16T19:37:35;14.50;99.90
12700;DHT22;6414;49.570;6.060;2022-10-16T19:40:20;14.40;99.90
12700;DHT22;6414;49.570;6.060;2022-10-16T19:43:06;14.40;99.90
12700;DHT22;6414;49.570;6.060;2022-10-16T19:45:51;14.40;99.90
12700;DHT22;6414;49.570;6.060;2022-10-16T19:48:36;14.40;99.90
12700;DHT22;6414;49.570;6.060;2022-10-16T19:51:22;14.40;99.90
12700;DHT22;6414;49.570;6.060;2022-10-16T19:54:09;14.40;99.90
12700;DHT22;6414;49.570;6.060;2022-10-16T19:56:52;14.40;99.90
12700;DHT22;6414;49.570;6.060;2022-10-16T19:59:37;14.40;99.90
12700;DHT22;6414;49.570;6.060;2022-10-16T20:02:23;14.30;99.90
12700;DHT22;6414;49.570;6.060;2022-10-16T20:05:08;14.30;99.90
12700;DHT22;6414;49.570;6.060;2022-10-16T20:07:54;14.30;99.90
12700;DHT22;6414;49.570;6.060;2022-10-16T20:10:46;14.20;99.90
12700;DHT22;6414;49.570;6.060;2022-10-16T20:13:25;14.30;99.90
12700;DHT22;6414;49.570;6.060;2022-10-16T20:16:11;14.20;99.90
12700;DHT22;6414;49.570;6.060;2022-10-16T20:18:56;14.30;99.90
12700;DHT22;6414;49.570;6.060;2022-10-16T20:21:43;14.20;99.90
12700;DHT22;6414;49.570;6.060;2022-10-16T20:24:28;14.30;99.90
12700;DHT22;6414;49.570;6.060;2022-10-16T20:27:14;14.20;99.90
12700;DHT22;6414;49.570;6.060;2022-10-16T20:29:59;14.20;99.90
12700;DHT22;6414;49.570;6.060;2022-10-16T20:32:45;14.20;99.90
12700;DHT22;6414;49.570;6.060;2022-10-16T20:35:34;14.20;99.90
12700;DHT22;6414;49.570;6.060;2022-10-16T20:38:16;14.20;99.90
12700;DHT22;6414;49.570;6.060;2022-10-16T20:41:01;14.30;99.90
12700;DHT22;6414;49.570;6.060;2022-10-16T20:43:46;14.30;99.90
12700;DHT22;6414;49.570;6.060;2022-10-16T20:46:33;14.30;99.90
12700;DHT22;6414;49.570;6.060;2022-10-16T20:49:18;14.30;99.90
12700;DHT22;6414;49.570;6.060;2022-10-16T20:52:04;14.20;99.90
12700;DHT22;6414;49.570;6.060;2022-10-16T20:54:49;14.30;99.90
12700;DHT22;6414;49.570;6.060;2022-10-16T20:57:34;14.20;99.90
12700;DHT22;6414;49.570;6.060;2022-10-16T21:00:20;14.20;99.90
12700;DHT22;6414;49.570;6.060;2022-10-16T21:03:05;14.20;99.90
12700;DHT22;6414;49.570;6.060;2022-10-16T21:05:50;14.30;99.90
12700;DHT22;6414;49.570;6.060;2022-10-16T21:08:37;14.20;99.90
12700;DHT22;6414;49.570;6.060;2022-10-16T21:11:22;14.30;99.90
12700;DHT22;6414;49.570;6.060;2022-10-16T21:14:07;14.30;99.90
12700;DHT22;6414;49.570;6.060;2022-10-16T21:16:52;14.30;99.90
12700;DHT22;6414;49.570;6.060;2022-10-16T21:19:38;14.30;99.90
12700;DHT22;6414;49.570;6.060;2022-10-16T21:22:27;14.40;99.90
12700;DHT22;6414;49.570;6.060;2022-10-16T21:25:09;14.40;99.90
12700;DHT22;6414;49.570;6.060;2022-10-16T21:27:54;14.40;99.90
12700;DHT22;6414;49.570;6.060;2022-10-16T21:30:40;14.30;99.90
12700;DHT22;6414;49.570;6.060;2022-10-16T21:33:26;14.40;99.90
12700;DHT22;6414;49.570;6.060;2022-10-16T21:36:14;14.30;99.90
12700;DHT22;6414;49.570;6.060;2022-10-16T21:39:01;14.30;99.90
12700;DHT22;6414;49.570;6.060;2022-10-16T21:41:45;14.30;99.90
12700;DHT22;6414;49.570;6.060;2022-10-16T21:44:31;14.30;99.90
12700;DHT22;6414;49.570;6.060;2022-10-16T21:47:17;14.30;99.90
12700;DHT22;6414;49.570;6.060;2022-10-16T21:50:02;14.30;99.90
12700;DHT22;6414;49.570;6.060;2022-10-16T21:52:48;14.20;99.90
12700;DHT22;6414;49.570;6.060;2022-10-16T21:55:34;14.30;99.90
12700;DHT22;6414;49.570;6.060;2022-10-16T21:58:19;14.30;99.90
12700;DHT22;6414;49.570;6.060;2022-10-16T22:01:07;14.30;99.90
12700;DHT22;6414;49.570;6.060;2022-10-16T22:03:52;14.20;99.90
12700;DHT22;6414;49.570;6.060;2022-10-16T22:06:38;14.20;99.90
12700;DHT22;6414;49.570;6.060;2022-10-16T22:09:24;14.10;99.90
12700;DHT22;6414;49.570;6.060;2022-10-16T22:12:10;14.10;99.90
12700;DHT22;6414;49.570;6.060;2022-10-16T22:14:55;14.20;99.90
12700;DHT22;6414;49.570;6.060;2022-10-16T22:17:41;14.10;99.90
12700;DHT22;6414;49.570;6.060;2022-10-16T22:20:27;14.10;99.90
12700;DHT22;6414;49.570;6.060;2022-10-16T22:23:13;14.10;99.90
12700;DHT22;6414;49.570;6.060;2022-10-16T22:25:58;14.00;99.90
12700;DHT22;6414;49.570;6.060;2022-10-16T22:28:43;14.00;99.90
12700;DHT22;6414;49.570;6.060;2022-10-16T22:31:28;13.90;99.90
12700;DHT22;6414;49.570;6.060;2022-10-16T22:34:14;13.90;99.90
12700;DHT22;6414;49.570;6.060;2022-10-16T22:37:00;14.10;99.90
12700;DHT22;6414;49.570;6.060;2022-10-16T22:39:45;14.10;99.90
12700;DHT22;6414;49.570;6.060;2022-10-16T22:42:31;14.10;99.90
12700;DHT22;6414;49.570;6.060;2022-10-16T22:45:16;14.10;99.90
12700;DHT22;6414;49.570;6.060;2022-10-16T22:48:02;14.10;99.90
12700;DHT22;6414;49.570;6.060;2022-10-16T22:50:49;14.10;99.90
12700;DHT22;6414;49.570;6.060;2022-10-16T22:53:35;14.10;99.90
12700;DHT22;6414;49.570;6.060;2022-10-16T22:56:20;14.10;99.90
12700;DHT22;6414;49.570;6.060;2022-10-16T22:59:05;14.10;99.90
12700;DHT22;6414;49.570;6.060;2022-10-16T23:01:51;14.00;99.90
12700;DHT22;6414;49.570;6.060;2022-10-16T23:04:36;14.00;99.90
12700;DHT22;6414;49.570;6.060;2022-10-16T23:07:22;14.00;99.90
12700;DHT22;6414;49.570;6.060;2022-10-16T23:10:07;14.00;99.90
12700;DHT22;6414;49.570;6.060;2022-10-16T23:12:53;13.80;99.90
12700;DHT22;6414;49.570;6.060;2022-10-16T23:15:39;13.90;99.90
12700;DHT22;6414;49.570;6.060;2022-10-16T23:18:23;13.90;99.90
12700;DHT22;6414;49.570;6.060;2022-10-16T23:21:10;13.80;99.90
12700;DHT22;6414;49.570;6.060;2022-10-16T23:23:55;13.90;99.90
12700;DHT22;6414;49.570;6.060;2022-10-16T23:26:41;13.90;99.90
12700;DHT22;6414;49.570;6.060;2022-10-16T23:29:27;14.00;99.90
12700;DHT22;6414;49.570;6.060;2022-10-16T23:32:12;13.90;99.90
12700;DHT22;6414;49.570;6.060;2022-10-16T23:34:57;13.90;99.90
12700;DHT22;6414;49.570;6.060;2022-10-16T23:37:42;13.90;99.90
12700;DHT22;6414;49.570;6.060;2022-10-16T23:40:28;13.80;99.90
12700;DHT22;6414;49.570;6.060;2022-10-16T23:43:13;13.90;99.90
12700;DHT22;6414;49.570;6.060;2022-10-16T23:45:59;13.90;99.90
12700;DHT22;6414;49.570;6.060;2022-10-16T23:48:44;13.90;99.90
12700;DHT22;6414;49.570;6.060;2022-10-16T23:51:30;13.80;99.90
12700;DHT22;6414;49.570;6.060;2022-10-16T23:54:15;13.80;99.90
12700;DHT22;6414;49.570;6.060;2022-10-16T23:57:01;13.70;99.90
12700;DHT22;6414;49.570;6.060;2022-10-16T23:59:47;13.80;99.90
